Accueil
METAR-TAF:

METAR-TAF

Aéroports :

Gwadar, Pakistan

latitude: 25-13-59N, longitude: 062-19-46E, altitude: 29 m

METAR: absent

Heure: 00:25 (19:25 UTC)

Prévision

Le bulletin a été fait il y a 2 heures et 25 minutes, à 17:00 UTC
Prévision valable du 28 à 18 UTC au 29 à 18 UTC
Vent 10 kt de ouest/sud-ouest avec des rafales jusqu'à 20 kt
Visibilité: 5000 m
Nuages épars à une hauteur de 3000 ft
Nuages épars à une hauteur de 10000 ft
brume sèche
Evoluant progressivement
du 28 à 18 UTC au 28 à 22 UTC
Vent 8 kt de sud/sud-ouest
Visibilité: 4000 m
Nuages épars à une hauteur de 3000 ft
fumée
Temporairement
du 29 à 00 UTC au 29 à 04 UTC
Vent 3 kt de direction variable
Visibilité: 3000 m
Nuages épars à une hauteur de 3000 ft
fumée

TAF: OPGD 281700Z 2818/2918 24010G20KT 5000 HZ SCT030 SCT100 BECMG 2818/2822 20008KT 4000 FU SCT030 TEMPO 2900/2904 VRB03KT 3000 FU SCT030

Observations et prévisions météorologiques de plus de 4000 aéroports (messages METAR et TAF).

Les stations disponibles sont représentées par des disques jaunes et rouges sur la carte.

Passer la souris dessus pour voir le nom de la station.

Cliquer dessus pour voir les observations et prévisions météorologiques.

Pour changer de carte: cliquez sur les boutons verts avec une croix noire pour zoomer, sur le bouton vert avec un tiret pour effectuer un zoom arrière, ou sur les flèches vertes pour les cartes adjacentes.


METAR-TAF: